createdAt,value
2023-03-07T00:00:58.250Z,99.90
2023-03-07T00:06:07.222Z,99.90
2023-03-07T00:11:14.044Z,99.90
2023-03-07T00:16:23.285Z,99.90
2023-03-07T00:21:37.017Z,99.90
2023-03-07T00:26:43.097Z,99.90
2023-03-07T00:31:51.113Z,99.90
2023-03-07T00:36:57.536Z,99.90
2023-03-07T00:42:04.200Z,99.90
2023-03-07T00:47:10.892Z,99.90
2023-03-07T00:52:18.391Z,99.90
2023-03-07T00:57:26.021Z,99.90
2023-03-07T01:02:32.385Z,99.90
2023-03-07T01:07:38.895Z,99.90
2023-03-07T01:12:46.113Z,99.90
2023-03-07T01:17:56.390Z,99.90
2023-03-07T01:23:03.761Z,99.90
2023-03-07T01:28:12.406Z,99.90
2023-03-07T01:33:18.763Z,99.90
2023-03-07T01:38:24.656Z,99.90
2023-03-07T01:43:40.517Z,99.90
2023-03-07T01:49:33.196Z,99.90
2023-03-07T01:54:50.495Z,99.90
2023-03-07T02:00:07.814Z,99.90
2023-03-07T02:05:28.424Z,99.90
2023-03-07T02:10:37.577Z,99.90
2023-03-07T02:15:54.444Z,99.90
2023-03-07T02:21:07.314Z,99.90
2023-03-07T02:26:24.707Z,99.90
2023-03-07T02:31:32.208Z,99.90
2023-03-07T02:36:39.861Z,99.90
2023-03-07T02:42:09.778Z,99.90
2023-03-07T02:47:24.323Z,99.90
2023-03-07T02:52:31.615Z,99.90
2023-03-07T02:57:38.821Z,99.90
2023-03-07T03:02:45.922Z,99.90
2023-03-07T03:07:52.204Z,99.90
2023-03-07T03:12:58.974Z,99.90
2023-03-07T03:18:06.077Z,99.90
2023-03-07T03:23:12.576Z,99.90
2023-03-07T03:28:19.145Z,99.90
2023-03-07T03:33:27.740Z,99.90
2023-03-07T03:38:35.294Z,99.90
2023-03-07T03:43:41.859Z,99.90
2023-03-07T03:48:58.978Z,96.80
2023-03-07T03:54:06.731Z,98.20
2023-03-07T03:59:14.965Z,97.70
2023-03-07T04:04:22.145Z,97.80
2023-03-07T04:09:34.980Z,97.40
2023-03-07T04:14:42.418Z,97.40
2023-03-07T04:19:47.822Z,96.60
2023-03-07T04:24:54.482Z,96.70
2023-03-07T04:30:01.347Z,97.20
2023-03-07T04:35:11.735Z,96.70
2023-03-07T04:40:18.604Z,96.30
2023-03-07T04:45:24.830Z,95.40
2023-03-07T04:50:32.464Z,94.60
2023-03-07T04:55:39.478Z,93.70
2023-03-07T05:00:47.797Z,92.70
2023-03-07T05:05:55.052Z,93.40
2023-03-07T05:11:01.654Z,94.10
2023-03-07T05:16:09.360Z,94.50
2023-03-07T05:21:16.211Z,92.30
2023-03-07T05:26:22.647Z,90.00
2023-03-07T05:31:29.580Z,86.40
2023-03-07T05:36:36.541Z,84.60
2023-03-07T05:41:43.303Z,83.20
2023-03-07T05:46:50.780Z,83.70
2023-03-07T05:51:57.015Z,85.80
2023-03-07T05:57:06.723Z,84.20
2023-03-07T06:02:13.397Z,83.20
2023-03-07T06:07:20.215Z,84.00
2023-03-07T06:12:27.358Z,83.80
2023-03-07T06:17:33.982Z,81.10
2023-03-07T06:22:40.833Z,80.70
2023-03-07T06:27:47.561Z,82.60
2023-03-07T06:32:53.727Z,84.80
2023-03-07T06:38:00.578Z,81.00
2023-03-07T06:43:07.587Z,80.80
2023-03-07T06:48:14.119Z,82.20
2023-03-07T06:53:21.368Z,80.80
2023-03-07T06:58:28.567Z,80.70
2023-03-07T07:03:35.143Z,80.90
2023-03-07T07:08:41.420Z,78.50
2023-03-07T07:13:49.298Z,77.80
2023-03-07T07:18:57.895Z,75.50
2023-03-07T07:24:04.865Z,77.90
2023-03-07T07:29:22.976Z,80.10
2023-03-07T07:34:31.213Z,78.80
2023-03-07T07:39:37.751Z,78.20
2023-03-07T07:44:52.852Z,76.80
2023-03-07T07:50:16.088Z,76.80
2023-03-07T07:55:22.632Z,77.90
2023-03-07T08:00:29.620Z,78.50
2023-03-07T08:05:35.973Z,78.40
2023-03-07T08:10:45.179Z,78.40
2023-03-07T08:15:51.559Z,80.70
2023-03-07T08:21:02.322Z,78.00
2023-03-07T08:26:11.857Z,81.80
2023-03-07T08:31:25.258Z,83.60
2023-03-07T08:36:31.761Z,85.20
2023-03-07T08:41:38.225Z,83.80
2023-03-07T08:46:45.681Z,86.60
2023-03-07T08:51:53.955Z,87.60
2023-03-07T08:57:00.503Z,89.40
2023-03-07T09:02:06.811Z,90.50
2023-03-07T09:07:13.049Z,91.20
2023-03-07T09:12:21.251Z,91.50
2023-03-07T09:17:27.724Z,92.40
2023-03-07T09:22:34.616Z,92.80
2023-03-07T09:27:41.490Z,93.40
2023-03-07T09:32:48.131Z,93.90
2023-03-07T09:37:54.524Z,94.80
2023-03-07T09:43:07.968Z,95.80
2023-03-07T09:48:27.907Z,96.40
2023-03-07T09:53:47.596Z,97.10
2023-03-07T09:59:22.431Z,97.70
2023-03-07T10:04:42.887Z,98.10
2023-03-07T10:09:49.835Z,98.30
2023-03-07T10:15:30.875Z,98.20
2023-03-07T10:20:59.821Z,98.50
2023-03-07T10:26:21.339Z,98.70
2023-03-07T10:31:41.915Z,99.20
2023-03-07T10:37:00.163Z,99.50
2023-03-07T10:42:20.053Z,99.90
2023-03-07T10:47:30.474Z,99.90
2023-03-07T10:53:04.685Z,99.90
2023-03-07T10:58:28.890Z,99.90
2023-03-07T11:03:58.581Z,99.90
2023-03-07T11:09:30.479Z,99.90
2023-03-07T11:15:20.513Z,99.90
2023-03-07T11:20:49.036Z,99.90
2023-03-07T11:25:57.962Z,99.90
2023-03-07T11:31:23.701Z,99.90
2023-03-07T11:43:17.009Z,99.90
2023-03-07T11:48:55.164Z,99.90
2023-03-07T11:54:09.143Z,99.90
2023-03-07T11:59:41.956Z,99.90
2023-03-07T12:04:55.069Z,99.90
2023-03-07T12:11:15.097Z,99.90
2023-03-07T12:16:42.753Z,99.90
2023-03-07T12:21:52.988Z,99.90
2023-03-07T12:33:47.179Z,99.90
2023-03-07T12:39:18.400Z,99.90
2023-03-07T12:44:48.308Z,99.90
2023-03-07T12:50:17.539Z,99.90
2023-03-07T12:55:32.674Z,99.90
2023-03-07T13:00:49.003Z,99.90
2023-03-07T13:06:04.345Z,99.90
2023-03-07T13:17:02.386Z,99.90
2023-03-07T13:22:19.581Z,99.90
2023-03-07T13:27:57.535Z,99.90
2023-03-07T13:34:19.777Z,99.90
2023-03-07T13:40:06.792Z,99.90
2023-03-07T13:45:59.863Z,99.90
2023-03-07T13:51:20.162Z,99.90
2023-03-07T13:57:35.806Z,99.90
2023-03-07T14:02:59.017Z,99.90
2023-03-07T14:08:33.027Z,99.90
2023-03-07T14:14:28.796Z,99.90
2023-03-07T14:20:00.519Z,99.90
2023-03-07T14:25:16.300Z,99.90
2023-03-07T14:30:32.288Z,99.90
2023-03-07T14:35:55.725Z,99.90
2023-03-07T14:41:27.487Z,99.90
2023-03-07T14:53:30.834Z,99.90
2023-03-07T15:05:20.815Z,99.90
2023-03-07T15:17:25.257Z,99.90
2023-03-07T15:22:41.839Z,99.90
2023-03-07T15:27:49.897Z,99.90
2023-03-07T15:33:18.721Z,99.90
2023-03-07T15:38:28.059Z,99.90
2023-03-07T15:43:38.056Z,99.90
2023-03-07T15:48:44.936Z,99.90
2023-03-07T15:54:23.889Z,99.90
2023-03-07T16:05:35.330Z,99.90
2023-03-07T16:17:03.600Z,99.90
2023-03-07T16:22:23.382Z,99.90
2023-03-07T16:27:30.548Z,99.90
2023-03-07T16:32:43.573Z,99.90
2023-03-07T16:38:24.937Z,99.90
2023-03-07T16:43:46.160Z,99.90
2023-03-07T16:48:54.326Z,99.90
2023-03-07T16:54:01.684Z,99.90
2023-03-07T16:59:10.270Z,99.90
2023-03-07T17:04:17.403Z,99.90
2023-03-07T17:09:24.704Z,99.90
2023-03-07T17:14:31.670Z,99.90
2023-03-07T17:19:54.140Z,99.90
2023-03-07T17:25:11.016Z,99.90
2023-03-07T17:30:29.064Z,99.90
2023-03-07T17:35:41.061Z,99.90
2023-03-07T17:40:47.118Z,99.90
2023-03-07T17:45:52.534Z,99.90
2023-03-07T17:50:58.326Z,99.90
2023-03-07T17:56:15.802Z,99.90
2023-03-07T18:01:21.965Z,99.90
2023-03-07T18:06:28.974Z,99.90
2023-03-07T18:11:36.940Z,99.90
2023-03-07T18:16:45.587Z,99.90
2023-03-07T18:21:53.629Z,99.90
2023-03-07T18:27:05.067Z,99.90
2023-03-07T18:32:11.109Z,99.90
2023-03-07T18:37:17.980Z,99.90
2023-03-07T18:42:24.501Z,99.90
2023-03-07T18:47:31.100Z,99.90
2023-03-07T18:52:37.654Z,99.90
2023-03-07T18:57:44.435Z,99.90
2023-03-07T19:02:50.873Z,99.90
2023-03-07T19:07:57.485Z,99.90
2023-03-07T19:13:03.863Z,99.90
2023-03-07T19:18:10.776Z,99.90
2023-03-07T19:23:17.876Z,99.90
2023-03-07T19:28:24.306Z,99.90
2023-03-07T19:33:30.592Z,99.90
2023-03-07T19:38:37.547Z,99.90
2023-03-07T19:43:44.884Z,99.90
2023-03-07T19:48:51.250Z,99.90
2023-03-07T19:53:58.259Z,99.90
2023-03-07T19:59:08.267Z,99.90
2023-03-07T20:04:16.186Z,99.90
2023-03-07T20:09:22.583Z,99.90
2023-03-07T20:14:29.147Z,99.90
2023-03-07T20:19:35.406Z,99.90
2023-03-07T20:24:41.611Z,99.90
2023-03-07T20:29:47.633Z,99.90
2023-03-07T20:34:55.352Z,99.90
2023-03-07T20:40:04.740Z,99.90
2023-03-07T20:45:12.018Z,99.90
2023-03-07T20:50:18.689Z,99.90
2023-03-07T20:55:24.995Z,99.90
2023-03-07T21:00:34.083Z,99.90
2023-03-07T21:05:40.749Z,99.90
2023-03-07T21:10:47.002Z,99.90
2023-03-07T21:15:59.940Z,99.90
2023-03-07T21:21:09.469Z,99.90
2023-03-07T21:26:18.259Z,99.90
2023-03-07T21:31:27.034Z,99.90
2023-03-07T21:43:42.768Z,99.90
2023-03-07T21:48:49.090Z,99.90
2023-03-07T21:53:54.760Z,99.90
2023-03-07T22:05:49.406Z,99.90
2023-03-07T22:11:03.205Z,99.90
2023-03-07T22:16:13.931Z,99.90
2023-03-07T22:21:20.338Z,99.90
2023-03-07T22:26:27.171Z,99.90
2023-03-07T22:31:33.809Z,99.90
2023-03-07T22:36:40.073Z,99.90
2023-03-07T22:41:46.788Z,99.90
2023-03-07T22:46:53.569Z,99.90
2023-03-07T22:52:04.088Z,99.90
2023-03-07T22:57:10.298Z,99.90
2023-03-07T23:02:17.007Z,99.90
2023-03-07T23:07:23.122Z,99.90
2023-03-07T23:12:28.570Z,99.90
2023-03-07T23:17:34.920Z,99.90
2023-03-07T23:22:42.589Z,99.90
2023-03-07T23:27:48.757Z,99.90
2023-03-07T23:32:54.482Z,99.90
2023-03-07T23:38:01.544Z,99.90
2023-03-07T23:43:07.673Z,99.90
2023-03-07T23:48:13.069Z,99.90
2023-03-07T23:53:19.803Z,99.90
2023-03-07T23:58:26.694Z,99.90
